March, United Kingdom
Current Conditions -  °F | °C
As of 6:50 PM on Tuesday 21 Oct 2014 (Local Time) from EGYM Reporting Station
Clear Clear  
Wind Chill: 41°   Ceiling: Unl
Heat Index: 48°   Visibility: 6mi
Dew Point: 37°   Wind: 23mph
Humidity: 66%   Direction: 280°W
Pressure: 29.8"   Gusts: 35mph
Location:  52.55°N, 0.09°E
Report Text: EGYM 211750Z 28020G30KT CAVOK 09/03 Q1009 BLU NOSIG
Loading
Personal Weather Stations






























Interactive Weather Map
Tropical Storm Tracking
New forecast layout! Learn more

10-Day Weather Forecast

Advertisements
Track Severe Weather on mobile